Time;durP1;ratioP1;P1;durP2;ratioP2;P2;SDS_P1;SDS_P2;PMS_P1;PMS_P2;Temp;Humidity;BMP_temperature;BMP_pressure;BME280_temperature;BME280_humidity;BME280_pressure;Samples;Min_cycle;Max_cycle;Signal;HPM_P1;HPM_P2
2022/08/12 00:43:17;;;;;;;3.13;2.50;;;20.80;99.00;;;;;;5011283;28;20210;-74
2022/08/12 00:48:32;;;;;;;2.65;2.40;;;20.70;98.80;;;;;;4988731;28;20204;-75
2022/08/12 00:51:01;;;;;;;3.15;2.85;;;20.80;98.90;;;;;;5013687;28;20215;-76
2022/08/12 00:53:29;;;;;;;11.48;2.60;;;20.70;98.90;;;;;;5014157;28;20297;-75
2022/08/12 00:55:58;;;;;;;7.35;2.63;;;20.70;98.90;;;;;;5012554;28;20305;-76
2022/08/12 00:58:27;;;;;;;2.58;2.35;;;20.70;98.90;;;;;;5011161;28;20200;-76
2022/08/12 01:00:58;;;;;;;3.17;2.53;;;20.60;98.90;;;;;;5012732;28;20211;-75
2022/08/12 01:11:27;;;;;;;4.25;2.65;;;20.60;98.90;;;;;;5012758;28;20213;-75
2022/08/12 01:11:49;;;;;;;2.40;2.20;;;20.60;99.20;;;;;;5011643;28;20253;-75
2022/08/12 01:14:18;;;;;;;2.53;2.33;;;20.60;99.20;;;;;;5010064;28;20199;-74
2022/08/12 01:16:48;;;;;;;4.03;2.40;;;20.50;99.30;;;;;;5008229;28;20334;-75
2022/08/12 01:19:15;;;;;;;4.50;2.45;;;20.50;99.30;;;;;;5012933;28;20617;-75
2022/08/12 01:22:21;;;;;;;6.30;2.10;;;20.50;99.30;;;;;;5013168;28;20348;-74
2022/08/12 01:25:05;;;;;;;4.15;1.95;;;20.50;99.60;;;;;;5004370;28;20231;-75
2022/08/12 01:27:34;;;;;;;3.28;2.17;;;20.50;99.30;;;;;;5012979;28;20203;-74
2022/08/12 01:30:04;;;;;;;2.20;2.00;;;20.50;99.40;;;;;;5008401;28;20199;-74
2022/08/12 01:32:36;;;;;;;4.43;2.05;;;20.40;99.40;;;;;;5011496;28;20215;-74
2022/08/12 01:35:08;;;;;;;2.17;2.00;;;20.50;99.50;;;;;;5013455;28;20267;-74
2022/08/12 01:37:37;;;;;;;4.22;2.25;;;20.30;99.40;;;;;;5013390;28;20570;-74
2022/08/12 01:40:10;;;;;;;5.20;2.20;;;20.50;99.60;;;;;;5011988;28;20214;-74
2022/08/12 01:42:44;;;;;;;3.13;1.80;;;20.40;99.50;;;;;;5012752;28;20207;-74
2022/08/12 01:45:12;;;;;;;4.28;2.17;;;20.40;99.60;;;;;;5012631;28;20219;-74
2022/08/12 01:47:57;;;;;;;2.40;1.83;;;20.40;99.60;;;;;;5010859;28;20211;-75
2022/08/12 01:50:32;;;;;;;2.22;1.95;;;20.40;99.70;;;;;;5000314;28;20210;-75
2022/08/12 01:53:07;;;;;;;3.55;1.88;;;20.40;99.70;;;;;;5012715;28;20213;-75
2022/08/12 01:55:38;;;;;;;3.10;1.75;;;20.40;99.70;;;;;;5012435;28;20676;-75
2022/08/12 01:58:19;;;;;;;2.85;2.20;;;20.40;99.70;;;;;;5010657;28;20227;-75
2022/08/12 02:00:57;;;;;;;2.30;1.80;;;20.30;99.70;;;;;;5011035;28;20203;-75
2022/08/12 02:12:48;;;;;;;3.30;1.90;;;20.30;99.90;;;;;;5011432;28;20678;-75
2022/08/12 02:15:23;;;;;;;1.90;1.63;;;20.30;99.90;;;;;;5010572;28;20696;-75
2022/08/12 02:18:01;;;;;;;2.83;1.85;;;20.20;99.90;;;;;;5012280;28;20203;-74
2022/08/12 02:20:37;;;;;;;3.88;1.88;;;20.30;99.90;;;;;;5011943;28;20210;-74
2022/08/12 02:23:06;;;;;;;2.45;1.63;;;20.30;99.90;;;;;;5010465;28;20223;-74
2022/08/12 02:25:41;;;;;;;4.35;2.20;;;20.30;99.90;;;;;;5011415;28;20231;-74
2022/08/12 02:28:09;;;;;;;5.82;2.30;;;20.30;99.90;;;;;;5011052;28;20215;-75
2022/08/12 02:30:37;;;;;;;6.97;2.17;;;20.20;99.90;;;;;;5010970;28;20540;-74
2022/08/12 02:33:05;;;;;;;2.00;1.80;;;20.30;99.90;;;;;;5011310;28;20211;-74
2022/08/12 02:35:34;;;;;;;5.78;2.20;;;20.30;99.90;;;;;;5011743;28;20217;-75
2022/08/12 02:38:03;;;;;;;3.75;1.70;;;20.20;99.90;;;;;;5009858;28;20204;-75
2022/08/12 02:40:31;;;;;;;2.30;1.90;;;20.20;99.90;;;;;;5001648;28;20630;-75
2022/08/12 02:43:02;;;;;;;4.40;1.83;;;20.20;99.90;;;;;;5011339;28;20231;-75
2022/08/12 02:45:44;;;;;;;3.58;1.90;;;20.20;99.90;;;;;;5012186;28;20680;-75
2022/08/12 02:48:17;;;;;;;3.60;2.10;;;20.20;99.90;;;;;;5010570;28;20310;-75
2022/08/12 02:50:50;;;;;;;3.38;1.90;;;20.20;99.90;;;;;;5011992;28;20206;-75
2022/08/12 02:53:17;;;;;;;3.10;1.77;;;20.20;99.90;;;;;;5010607;28;20203;-75
2022/08/12 02:55:45;;;;;;;6.03;2.00;;;20.20;99.90;;;;;;5008279;28;20215;-75
2022/08/12 02:58:13;;;;;;;2.28;1.85;;;20.20;99.90;;;;;;5010828;28;20567;-76
2022/08/12 03:00:42;;;;;;;3.17;2.40;;;20.20;99.90;;;;;;5010732;28;20214;-75
2022/08/12 03:03:11;;;;;;;3.38;2.30;;;20.20;99.90;;;;;;5010293;28;20843;-74
2022/08/12 03:05:44;;;;;;;2.13;1.98;;;20.20;99.90;;;;;;5011128;28;20769;-75
2022/08/12 03:08:13;;;;;;;3.35;1.65;;;20.30;99.90;;;;;;5011025;28;20257;-75
2022/08/12 03:10:43;;;;;;;6.63;2.00;;;20.30;99.90;;;;;;5009713;28;20242;-75
2022/08/12 03:13:12;;;;;;;1.88;1.77;;;20.20;99.90;;;;;;5009545;28;20653;-75
2022/08/12 03:15:39;;;;;;;5.03;2.00;;;20.20;99.90;;;;;;5009961;28;20211;-75
2022/08/12 03:18:15;;;;;;;5.57;2.05;;;20.20;99.90;;;;;;5009912;28;20211;-75
2022/08/12 03:20:42;;;;;;;7.90;2.60;;;20.20;99.90;;;;;;5010195;28;20693;-74
2022/08/12 03:23:11;;;;;;;5.13;2.10;;;20.20;99.90;;;;;;5011316;28;20242;-75
2022/08/12 03:25:40;;;;;;;3.42;2.10;;;20.30;99.90;;;;;;5010713;28;20242;-75
2022/08/12 03:28:10;;;;;;;7.63;2.25;;;20.20;99.90;;;;;;5009408;28;20210;-74
2022/08/12 03:30:39;;;;;;;2.58;1.83;;;20.20;99.90;;;;;;5009437;28;20219;-75
2022/08/12 03:33:08;;;;;;;2.78;2.10;;;20.20;99.90;;;;;;5011102;28;20222;-75
2022/08/12 03:35:36;;;;;;;3.33;2.08;;;20.20;99.90;;;;;;5009584;28;20238;-75
2022/08/12 03:38:07;;;;;;;5.97;2.13;;;20.20;99.90;;;;;;5010022;28;20199;-75
2022/08/12 04:00:22;;;;;;;2.20;1.85;;;20.10;99.90;;;;;;5008025;28;20202;-74
2022/08/12 04:02:54;;;;;;;3.25;2.17;;;20.00;99.90;;;;;;5009565;28;20203;-74
2022/08/12 04:05:22;;;;;;;2.10;1.90;;;20.00;99.90;;;;;;5009738;28;20227;-74
2022/08/12 04:07:51;;;;;;;5.75;2.08;;;19.90;99.90;;;;;;5009911;28;20216;-74
2022/08/12 04:10:18;;;;;;;2.30;1.92;;;19.90;99.90;;;;;;5010092;28;20204;-75
2022/08/12 04:15:42;;;;;;;4.57;1.75;;;19.90;99.90;;;;;;5011423;28;20206;-75
2022/08/12 04:18:11;;;;;;;4.28;2.08;;;19.90;99.90;;;;;;5013411;28;20215;-75
2022/08/12 04:20:41;;;;;;;3.15;2.38;;;19.90;99.90;;;;;;5013903;28;20718;-74
2022/08/12 04:23:11;;;;;;;4.10;2.58;;;19.90;99.90;;;;;;5013613;28;20278;-74
2022/08/12 04:25:42;;;;;;;2.53;1.98;;;19.90;99.90;;;;;;5012200;28;20219;-74
2022/08/12 04:28:11;;;;;;;5.05;2.55;;;19.90;99.90;;;;;;5009916;28;20207;-74
2022/08/12 04:30:39;;;;;;;4.38;2.22;;;19.80;99.90;;;;;;5012546;28;20219;-74
2022/08/12 04:33:08;;;;;;;5.93;2.50;;;19.90;99.90;;;;;;5013355;28;20310;-74
2022/08/12 04:35:35;;;;;;;3.97;2.50;;;20.00;99.90;;;;;;5005371;28;20248;-75
2022/08/12 04:38:05;;;;;;;3.92;2.25;;;19.90;99.90;;;;;;5011602;28;20219;-75
2022/08/12 04:40:35;;;;;;;2.45;2.25;;;19.90;99.90;;;;;;5013974;28;20207;-75
2022/08/12 04:43:02;;;;;;;6.15;2.45;;;20.00;99.90;;;;;;5013450;28;20298;-75
2022/08/12 04:45:30;;;;;;;3.67;2.25;;;19.90;99.90;;;;;;5012695;28;20231;-74
2022/08/12 04:47:57;;;;;;;2.65;2.30;;;20.00;99.90;;;;;;5013061;28;20706;-75
2022/08/12 04:50:25;;;;;;;2.95;2.45;;;20.00;99.90;;;;;;5012033;28;20426;-74
2022/08/12 04:52:52;;;;;;;3.67;2.20;;;20.10;99.90;;;;;;5013661;28;20548;-75
2022/08/12 04:55:22;;;;;;;3.15;2.08;;;20.10;99.90;;;;;;5012633;28;20210;-75
2022/08/12 04:57:49;;;;;;;4.75;2.35;;;20.10;99.90;;;;;;5002939;28;20235;-75
2022/08/12 05:00:16;;;;;;;6.00;2.33;;;20.10;99.90;;;;;;5011915;28;20215;-74
2022/08/12 05:02:43;;;;;;;4.35;2.22;;;20.10;99.90;;;;;;5013277;28;20576;-74
2022/08/12 05:05:17;;;;;;;2.08;1.98;;;20.10;99.90;;;;;;5012013;28;20231;-74
2022/08/12 05:07:44;;;;;;;3.08;2.35;;;20.10;99.90;;;;;;5011782;28;20215;-75
2022/08/12 05:10:11;;;;;;;7.70;2.28;;;20.10;99.90;;;;;;5009170;28;20211;-74
2022/08/12 05:12:43;;;;;;;3.25;2.55;;;20.20;99.90;;;;;;5013195;28;20599;-74
2022/08/12 05:15:12;;;;;;;3.55;2.38;;;20.20;99.90;;;;;;5009807;28;20858;-74
2022/08/12 05:17:40;;;;;;;5.22;2.78;;;20.30;99.90;;;;;;5011617;28;20211;-74
2022/08/12 05:20:08;;;;;;;5.00;2.30;;;20.40;99.90;;;;;;5011499;28;20651;-75
2022/08/12 05:22:35;;;;;;;9.75;2.55;;;20.50;99.90;;;;;;5010534;28;20289;-74
2022/08/12 05:25:02;;;;;;;6.45;2.75;;;20.60;99.90;;;;;;5003202;28;20226;-73
2022/08/12 05:27:29;;;;;;;7.60;2.45;;;20.60;99.90;;;;;;5003796;28;20210;-69
2022/08/12 05:29:57;;;;;;;4.20;2.58;;;20.70;99.90;;;;;;5006612;28;20577;-73
2022/08/12 05:32:24;;;;;;;4.60;2.57;;;20.70;99.90;;;;;;5005704;28;20474;-78
2022/08/12 05:34:53;;;;;;;7.75;4.63;;;20.70;99.90;;;;;;5002390;28;20212;-78
2022/08/12 05:37:20;;;;;;;18.85;7.70;;;20.70;99.90;;;;;;5006794;28;20203;-78
2022/08/12 05:39:47;;;;;;;9.73;4.97;;;20.80;99.90;;;;;;5014020;28;20212;-79
2022/08/12 05:42:14;;;;;;;8.20;5.30;;;20.80;99.90;;;;;;5013354;28;20439;-76
2022/08/12 05:44:41;;;;;;;8.98;4.88;;;20.90;99.90;;;;;;5009365;28;20459;-68
2022/08/12 05:47:10;;;;;;;22.70;10.30;;;21.00;99.90;;;;;;5006523;28;20455;-69
2022/08/12 05:49:39;;;;;;;17.25;9.20;;;21.10;99.90;;;;;;5005941;28;20754;-70
2022/08/12 05:52:08;;;;;;;25.33;12.63;;;21.10;99.90;;;;;;5005084;28;20207;-69
2022/08/12 05:54:40;;;;;;;10.10;4.72;;;21.20;99.90;;;;;;5010006;28;20218;-68
2022/08/12 05:57:07;;;;;;;10.98;6.28;;;21.20;99.90;;;;;;5004096;28;20314;-67
2022/08/12 05:59:37;;;;;;;26.70;6.10;;;21.30;99.90;;;;;;5004195;28;20211;-75
2022/08/12 06:02:09;;;;;;;12.13;5.53;;;21.30;99.90;;;;;;5008886;28;20211;-69
2022/08/12 06:04:40;;;;;;;5.10;3.17;;;21.40;99.90;;;;;;5006738;28;20242;-68
2022/08/12 06:07:07;;;;;;;10.07;4.60;;;21.50;99.90;;;;;;5002928;28;20219;-71
2022/08/12 06:09:34;;;;;;;6.88;2.75;;;21.50;99.90;;;;;;5008483;28;20210;-70
2022/08/12 06:12:03;;;;;;;4.68;3.45;;;21.50;99.90;;;;;;5005735;28;20695;-70
2022/08/12 06:14:33;;;;;;;11.25;4.07;;;21.60;99.90;;;;;;5001047;28;21762;-73
2022/08/12 06:17:01;;;;;;;10.20;3.92;;;21.70;99.90;;;;;;5005251;28;20284;-74
2022/08/12 06:19:28;;;;;;;5.35;2.55;;;21.80;99.90;;;;;;5004427;28;20258;-75
2022/08/12 06:21:56;;;;;;;7.75;3.45;;;22.00;99.90;;;;;;5009301;28;20589;-73
2022/08/12 06:24:27;;;;;;;6.72;3.40;;;22.10;99.90;;;;;;5010826;28;20218;-75
2022/08/12 06:26:54;;;;;;;5.70;2.70;;;22.30;99.90;;;;;;5011692;28;20361;-72
2022/08/12 06:29:21;;;;;;;3.42;2.50;;;22.40;99.90;;;;;;5012119;28;20207;-73
2022/08/12 06:31:50;;;;;;;5.13;2.45;;;22.50;99.90;;;;;;5011308;28;20207;-73
2022/08/12 06:34:17;;;;;;;3.47;2.78;;;22.60;99.90;;;;;;5011099;28;20211;-72
2022/08/12 06:36:45;;;;;;;7.65;2.70;;;22.60;99.90;;;;;;5005712;28;20215;-72
2022/08/12 06:39:13;;;;;;;8.73;2.80;;;22.70;99.90;;;;;;5010184;28;20222;-72
2022/08/12 06:44:25;;;;;;;4.78;2.33;;;23.00;99.90;;;;;;5005239;28;20619;-72
2022/08/12 06:46:52;;;;;;;3.35;2.22;;;23.00;99.90;;;;;;5006809;28;20231;-69
2022/08/12 06:49:19;;;;;;;3.38;2.22;;;23.00;99.90;;;;;;5006977;28;20208;-75
2022/08/12 06:51:45;;;;;;;2.20;2.00;;;23.00;99.90;;;;;;5010747;28;20214;-69
2022/08/12 06:54:14;;;;;;;3.85;2.20;;;23.10;99.90;;;;;;5009731;28;20660;-70
2022/08/12 06:56:40;;;;;;;4.75;2.30;;;23.00;99.90;;;;;;5008275;28;20246;-70
2022/08/12 06:59:07;;;;;;;2.67;2.10;;;22.90;99.90;;;;;;5008512;28;20676;-73
2022/08/12 07:01:35;;;;;;;2.47;2.22;;;22.90;99.90;;;;;;5003670;28;20225;-67
2022/08/12 07:04:02;;;;;;;2.60;2.40;;;22.90;99.90;;;;;;5004781;28;20210;-74
2022/08/12 07:06:29;;;;;;;2.40;2.08;;;22.90;99.90;;;;;;5009506;28;20694;-72
2022/08/12 07:08:55;;;;;;;2.92;2.10;;;23.00;99.90;;;;;;4998995;28;20208;-74
2022/08/12 07:11:24;;;;;;;2.53;2.33;;;23.10;99.90;;;;;;5003690;28;20219;-76
2022/08/12 07:13:52;;;;;;;4.22;2.28;;;23.20;99.90;;;;;;5002389;28;20208;-72
2022/08/12 07:16:20;;;;;;;4.75;2.40;;;23.30;99.90;;;;;;5005022;28;20202;-72
2022/08/12 07:18:50;;;;;;;3.17;2.33;;;23.50;99.90;;;;;;5009712;28;20203;-73
2022/08/12 07:21:18;;;;;;;2.60;2.40;;;23.50;99.90;;;;;;5002530;28;20660;-73
2022/08/12 07:23:45;;;;;;;2.60;2.40;;;23.60;99.90;;;;;;5004907;28;20258;-73
2022/08/12 07:26:16;;;;;;;3.75;2.30;;;23.80;99.90;;;;;;5010796;28;20227;-75
2022/08/12 07:28:47;;;;;;;4.63;2.75;;;23.90;99.90;;;;;;5004015;28;20211;-74
2022/08/12 07:31:14;;;;;;;2.50;2.30;;;23.90;99.90;;;;;;5003719;28;20239;-74
2022/08/12 07:33:42;;;;;;;3.63;2.28;;;24.00;99.90;;;;;;4997674;28;20212;-75
2022/08/12 07:36:12;;;;;;;2.97;2.33;;;24.00;99.90;;;;;;4997992;28;20212;-74
2022/08/12 07:38:42;;;;;;;5.70;2.60;;;24.20;99.90;;;;;;5005148;28;20218;-74
2022/08/12 07:41:11;;;;;;;2.30;2.10;;;24.40;99.90;;;;;;5003789;28;20227;-74
2022/08/12 07:43:41;;;;;;;3.05;2.10;;;24.60;99.90;;;;;;5010125;28;20214;-74
2022/08/12 07:46:13;;;;;;;2.97;2.78;;;24.60;99.90;;;;;;5005822;28;20230;-75
2022/08/12 07:48:43;;;;;;;3.95;3.40;;;24.90;99.90;;;;;;5010561;28;20207;-72
2022/08/12 07:51:10;;;;;;;6.25;2.53;;;25.00;99.90;;;;;;5011687;28;20215;-74
2022/08/12 07:53:38;;;;;;;2.95;2.38;;;25.10;99.90;;;;;;5013227;28;20204;-74
2022/08/12 07:56:08;;;;;;;7.97;3.42;;;25.30;99.90;;;;;;5012138;28;20698;-74
2022/08/12 07:58:38;;;;;;;3.10;2.35;;;25.40;99.60;;;;;;5012182;28;20207;-73
2022/08/12 08:01:05;;;;;;;2.58;2.38;;;25.60;99.20;;;;;;5018573;28;20203;-74
2022/08/12 08:03:33;;;;;;;2.85;2.53;;;25.60;98.30;;;;;;5011773;28;20244;-74
2022/08/12 08:06:00;;;;;;;4.57;2.00;;;25.60;98.20;;;;;;5013259;28;20219;-74
2022/08/12 08:08:28;;;;;;;2.38;2.17;;;25.60;98.20;;;;;;5009262;28;20209;-73
2022/08/12 08:12:52;;;;;;;4.40;2.20;;;25.70;98.30;;;;;;5010204;28;20724;-75
2022/08/12 08:13:44;;;;;;;3.05;2.00;;;25.80;98.10;;;;;;5013486;28;20207;-75
2022/08/12 08:16:14;;;;;;;3.42;2.22;;;25.80;97.80;;;;;;5012758;28;20314;-76
2022/08/12 08:18:43;;;;;;;5.45;2.38;;;25.90;97.50;;;;;;5011715;28;20293;-75
2022/08/12 08:21:10;;;;;;;4.03;2.20;;;26.00;97.00;;;;;;5009474;28;20278;-75
2022/08/12 08:26:23;;;;;;;4.78;2.10;;;26.10;97.10;;;;;;5012633;28;20506;-74
2022/08/12 08:28:50;;;;;;;17.80;2.20;;;26.30;96.50;;;;;;5011873;28;20637;-74
2022/08/12 08:31:17;;;;;;;1.90;1.80;;;26.70;96.20;;;;;;5012146;28;20575;-73
2022/08/12 08:33:47;;;;;;;2.83;1.90;;;26.90;95.40;;;;;;5011817;28;20657;-74
2022/08/12 08:36:14;;;;;;;2.53;2.08;;;27.00;94.80;;;;;;5011239;28;20226;-72
2022/08/12 08:38:43;;;;;;;3.45;2.15;;;27.10;94.60;;;;;;5013689;28;20600;-74
2022/08/12 08:43:59;;;;;;;6.38;2.60;;;27.10;94.10;;;;;;5009293;28;20765;-73
2022/08/12 08:46:26;;;;;;;2.80;2.40;;;27.20;94.20;;;;;;5009375;28;20778;-74
2022/08/12 08:48:56;;;;;;;4.10;2.05;;;27.30;93.90;;;;;;5007071;28;20215;-74
2022/08/12 08:51:25;;;;;;;2.88;2.40;;;27.40;93.60;;;;;;5009235;28;20606;-75
2022/08/12 08:53:52;;;;;;;2.53;2.30;;;27.50;93.50;;;;;;5008454;28;20215;-73
2022/08/12 08:56:19;;;;;;;2.35;2.15;;;27.50;93.20;;;;;;5011217;28;20251;-75
2022/08/12 08:58:46;;;;;;;2.40;2.20;;;27.60;93.00;;;;;;5012094;28;20229;-74
2022/08/12 09:01:16;;;;;;;1.73;1.63;;;27.70;92.90;;;;;;5011138;28;20667;-75
2022/08/12 09:03:43;;;;;;;2.90;1.77;;;27.80;93.00;;;;;;5009797;28;20211;-74
2022/08/12 09:06:13;;;;;;;2.80;1.63;;;28.00;93.00;;;;;;5012490;28;20231;-73
2022/08/12 09:08:40;;;;;;;3.55;1.90;;;28.10;92.50;;;;;;5011726;28;20218;-76
2022/08/12 09:13:48;;;;;;;1.83;1.70;;;28.30;92.00;;;;;;5008049;28;20191;-74
2022/08/12 09:16:16;;;;;;;6.97;3.75;;;28.50;91.50;;;;;;5008373;28;20218;-73
2022/08/12 09:18:42;;;;;;;5.50;2.03;;;28.70;91.20;;;;;;5012452;28;20211;-75
2022/08/12 09:21:11;;;;;;;3.95;2.30;;;28.90;90.70;;;;;;5012953;28;20202;-73
2022/08/12 09:23:38;;;;;;;3.70;2.10;;;28.80;90.00;;;;;;5011381;28;20211;-73
2022/08/12 09:26:05;;;;;;;2.65;2.00;;;28.70;90.30;;;;;;5011736;28;20231;-74
2022/08/12 09:28:34;;;;;;;2.70;2.50;;;28.70;90.10;;;;;;5009950;28;20207;-75
2022/08/12 09:31:04;;;;;;;3.88;2.45;;;28.50;90.10;;;;;;5007496;28;20233;-73
2022/08/12 09:33:33;;;;;;;2.72;2.53;;;28.20;90.60;;;;;;5004949;28;20208;-72
2022/08/12 09:36:01;;;;;;;3.22;2.60;;;28.00;91.30;;;;;;5011169;28;20661;-76
2022/08/12 09:38:30;;;;;;;2.72;2.50;;;27.50;91.80;;;;;;5011263;28;20733;-75
2022/08/12 09:40:57;;;;;;;2.83;2.60;;;27.30;92.40;;;;;;5010115;28;20207;-73
2022/08/12 09:46:09;;;;;;;2.40;2.30;;;26.90;93.40;;;;;;5002964;28;20221;-73
2022/08/12 09:48:36;;;;;;;2.70;2.50;;;26.80;93.80;;;;;;4994657;28;20759;-74
2022/08/12 09:51:07;;;;;;;2.45;2.22;;;26.80;94.10;;;;;;5002889;28;20546;-76
2022/08/12 09:53:35;;;;;;;3.55;2.65;;;26.70;94.20;;;;;;5009649;28;20215;-76
2022/08/12 09:56:02;;;;;;;3.75;2.80;;;26.60;94.40;;;;;;5011404;28;20262;-77
2022/08/12 09:58:29;;;;;;;3.97;2.83;;;26.50;94.70;;;;;;5009313;28;20207;-78
2022/08/12 10:01:00;;;;;;;5.07;2.60;;;26.40;95.10;;;;;;5002914;28;20207;-78
2022/08/12 10:03:28;;;;;;;6.60;2.83;;;26.30;95.30;;;;;;5013440;28;20204;-78
2022/08/12 10:05:55;;;;;;;5.82;3.63;;;26.20;95.70;;;;;;5011892;28;20223;-78
2022/08/12 10:08:26;;;;;;;3.13;2.80;;;26.10;96.50;;;;;;5013658;28;20219;-77
2022/08/12 10:13:43;;;;;;;3.28;2.47;;;25.90;97.00;;;;;;4993032;28;20211;-76
2022/08/12 10:16:12;;;;;;;3.42;2.42;;;25.90;97.20;;;;;;5013357;28;20207;-78
2022/08/12 10:18:40;;;;;;;3.78;3.42;;;25.90;97.50;;;;;;5009187;28;20225;-77
2022/08/12 10:21:10;;;;;;;3.20;2.90;;;25.90;97.90;;;;;;5012838;28;20253;-76
2022/08/12 10:23:39;;;;;;;4.38;2.78;;;26.00;98.10;;;;;;5011577;28;20211;-71
2022/08/12 10:31:37;;;;;;;5.28;3.15;;;27.20;97.40;;;;;;5009057;28;20243;-71
2022/08/12 10:34:04;;;;;;;6.45;3.00;;;27.50;96.70;;;;;;5010761;28;20565;-75
2022/08/12 10:36:32;;;;;;;2.60;2.40;;;27.80;96.40;;;;;;5009499;28;20808;-73
2022/08/12 10:38:59;;;;;;;3.97;3.25;;;28.10;95.60;;;;;;5009464;28;20601;-76
2022/08/12 10:44:14;;;;;;;4.75;3.08;;;28.30;95.10;;;;;;5009661;28;20211;-76
2022/08/12 10:46:43;;;;;;;3.22;2.80;;;28.60;94.80;;;;;;5009755;28;20231;-78
2022/08/12 10:49:11;;;;;;;4.57;2.80;;;28.70;94.10;;;;;;5011031;28;20213;-76
2022/08/12 10:51:38;;;;;;;4.47;2.85;;;28.90;93.60;;;;;;5009306;28;20204;-75
2022/08/12 10:54:05;;;;;;;5.07;2.95;;;29.10;93.50;;;;;;5014692;28;20213;-77
2022/08/12 10:56:35;;;;;;;3.47;3.17;;;29.10;93.20;;;;;;5006986;28;20235;-76
2022/08/12 10:59:04;;;;;;;5.28;3.50;;;29.00;93.20;;;;;;5006339;28;20817;-75
2022/08/12 11:01:32;;;;;;;3.90;3.20;;;28.90;93.30;;;;;;5005101;28;20684;-74
2022/08/12 11:04:01;;;;;;;3.45;3.15;;;28.70;93.40;;;;;;5006879;28;20243;-75
2022/08/12 11:06:28;;;;;;;5.45;3.08;;;28.40;93.80;;;;;;5008353;28;20214;-74
2022/08/12 11:08:55;;;;;;;3.20;3.00;;;28.10;94.10;;;;;;5009270;28;20238;-75
2022/08/12 11:11:24;;;;;;;4.28;3.72;;;27.80;94.60;;;;;;5011709;28;20211;-74
2022/08/12 11:13:52;;;;;;;3.72;3.25;;;27.60;94.90;;;;;;5010085;28;20211;-74
2022/08/12 11:16:19;;;;;;;6.03;3.60;;;27.50;95.40;;;;;;5005484;28;20215;-76
2022/08/12 11:18:46;;;;;;;3.47;3.20;;;27.50;95.70;;;;;;5007077;28;20207;-75
2022/08/12 11:21:13;;;;;;;3.60;3.30;;;27.50;95.70;;;;;;5010751;28;20217;-75
2022/08/12 11:23:40;;;;;;;6.63;3.53;;;27.50;95.70;;;;;;5009256;28;20212;-75
2022/08/12 11:26:07;;;;;;;4.45;3.63;;;27.60;96.10;;;;;;5009671;28;20213;-75
2022/08/12 11:28:35;;;;;;;4.38;3.13;;;27.50;95.70;;;;;;5009043;28;20250;-75
2022/08/12 11:31:04;;;;;;;4.30;3.70;;;27.50;95.80;;;;;;5007339;28;21887;-75
2022/08/12 11:33:31;;;;;;;3.60;3.38;;;27.50;95.80;;;;;;5010612;28;20682;-75
2022/08/12 11:36:05;;;;;;;4.18;3.88;;;27.30;96.00;;;;;;5009590;28;20402;-76
2022/08/12 11:38:32;;;;;;;5.97;4.07;;;27.20;96.10;;;;;;5009224;28;20234;-74
2022/08/12 11:41:01;;;;;;;6.70;3.60;;;27.10;96.30;;;;;;5006941;28;20230;-74
2022/08/12 11:43:27;;;;;;;4.13;3.72;;;27.00;96.60;;;;;;5009472;28;20672;-75
2022/08/12 11:45:54;;;;;;;7.57;3.92;;;27.00;96.70;;;;;;5010623;28;20211;-76
2022/08/12 11:48:22;;;;;;;4.50;4.10;;;27.10;96.70;;;;;;5007791;28;20231;-74
2022/08/12 11:50:49;;;;;;;6.82;3.97;;;27.10;96.80;;;;;;5010665;28;20317;-73
2022/08/12 11:53:16;;;;;;;4.90;4.40;;;27.10;96.90;;;;;;5009200;28;20211;-74
2022/08/12 11:55:43;;;;;;;4.20;3.90;;;27.10;97.00;;;;;;5008275;28;20501;-73
2022/08/12 11:58:10;;;;;;;3.72;3.47;;;27.10;97.10;;;;;;5009489;28;20235;-74
2022/08/12 12:00:36;;;;;;;5.40;4.00;;;27.20;96.80;;;;;;5008533;28;20218;-74
2022/08/12 12:03:03;;;;;;;7.13;4.47;;;27.20;96.80;;;;;;5008895;28;20400;-74
2022/08/12 12:05:32;;;;;;;4.78;3.83;;;27.10;96.90;;;;;;5008747;28;20286;-75
2022/08/12 12:07:58;;;;;;;5.75;4.07;;;27.10;97.10;;;;;;5009155;28;20234;-75
2022/08/12 12:10:25;;;;;;;4.57;4.05;;;27.20;97.00;;;;;;5009039;28;20215;-73
2022/08/12 12:12:52;;;;;;;5.55;3.90;;;27.30;97.00;;;;;;5006590;28;20214;-73
2022/08/12 12:15:19;;;;;;;4.38;3.92;;;27.50;96.90;;;;;;5010196;28;20211;-75
2022/08/12 12:17:45;;;;;;;4.80;4.40;;;27.40;96.60;;;;;;5008047;28;20299;-74
2022/08/12 12:20:12;;;;;;;5.90;4.10;;;27.40;96.70;;;;;;5009070;28;20211;-74
2022/08/12 12:22:42;;;;;;;4.38;3.97;;;27.40;96.80;;;;;;5005904;28;20231;-75
2022/08/12 12:25:09;;;;;;;5.03;4.25;;;27.40;96.60;;;;;;5008679;28;20680;-74
2022/08/12 12:27:48;;;;;;;6.53;4.05;;;27.30;96.60;;;;;;5007823;28;20227;-77
2022/08/12 12:30:15;;;;;;;4.50;4.10;;;27.20;96.80;;;;;;5003120;28;20868;-75
2022/08/12 12:32:42;;;;;;;4.00;3.70;;;27.10;96.90;;;;;;5007955;28;20218;-74
2022/08/12 12:35:09;;;;;;;4.43;4.03;;;27.00;97.00;;;;;;5006983;28;21066;-78
2022/08/12 12:37:52;;;;;;;10.55;4.18;;;27.00;97.10;;;;;;5008500;28;20249;-76
2022/08/12 12:40:19;;;;;;;5.25;4.75;;;27.10;97.30;;;;;;5006915;28;20210;-74
2022/08/12 12:42:46;;;;;;;4.78;4.38;;;27.30;97.20;;;;;;5012083;28;20226;-74
2022/08/12 12:45:14;;;;;;;4.70;4.30;;;27.50;96.90;;;;;;5014430;28;20211;-77
2022/08/12 12:47:56;;;;;;;6.40;4.82;;;27.80;96.50;;;;;;5008781;28;20228;-76
2022/08/12 12:50:24;;;;;;;5.10;4.60;;;27.90;96.00;;;;;;5007927;28;20206;-76
2022/08/12 12:52:52;;;;;;;5.15;4.75;;;28.00;95.90;;;;;;5012915;28;20222;-76
2022/08/12 12:55:20;;;;;;;5.25;3.95;;;27.90;95.70;;;;;;5011729;28;20207;-77
2022/08/12 12:57:48;;;;;;;4.28;3.97;;;28.00;95.90;;;;;;5009699;28;20607;-76
2022/08/12 13:00:17;;;;;;;4.70;4.15;;;28.30;95.80;;;;;;5010329;28;20211;-75
2022/08/12 13:02:51;;;;;;;4.30;3.90;;;28.50;95.20;;;;;;5012846;28;20570;-75
2022/08/12 13:05:24;;;;;;;9.48;4.30;;;28.90;94.80;;;;;;5011850;28;20302;-75
2022/08/12 13:07:54;;;;;;;4.85;4.43;;;29.30;94.20;;;;;;5009621;28;20671;-76
2022/08/12 13:10:22;;;;;;;5.25;4.63;;;29.70;93.60;;;;;;5011566;28;20215;-75
2022/08/12 13:12:49;;;;;;;4.45;4.05;;;30.10;93.00;;;;;;4999901;28;20286;-76
2022/08/12 13:15:16;;;;;;;5.18;4.22;;;30.30;92.60;;;;;;5007587;28;20211;-76
2022/08/12 13:17:46;;;;;;;4.85;4.40;;;30.40;92.10;;;;;;5007054;28;20321;-76
2022/08/12 13:20:14;;;;;;;4.28;3.97;;;30.30;92.20;;;;;;5013846;28;20210;-75
2022/08/12 13:22:41;;;;;;;4.72;4.28;;;30.00;92.30;;;;;;5001070;28;20640;-75
2022/08/12 13:25:09;;;;;;;4.88;4.40;;;29.70;92.60;;;;;;5007678;28;20214;-75
2022/08/12 13:27:40;;;;;;;4.40;4.00;;;29.30;93.00;;;;;;5010442;28;20262;-76
2022/08/12 13:30:11;;;;;;;7.15;4.40;;;29.00;93.30;;;;;;4999609;28;20219;-75
2022/08/12 13:32:38;;;;;;;5.13;4.63;;;28.60;93.30;;;;;;5010751;28;20294;-75
2022/08/12 13:35:06;;;;;;;10.27;4.93;;;28.30;93.70;;;;;;5006395;28;20301;-75
2022/08/12 13:37:34;;;;;;;7.10;4.80;;;28.10;93.70;;;;;;5006153;28;20214;-76
2022/08/12 13:40:01;;;;;;;7.43;4.70;;;27.90;94.00;;;;;;4998796;28;20227;-75
2022/08/12 13:42:29;;;;;;;6.40;4.45;;;27.80;94.10;;;;;;5000830;28;20211;-74
2022/08/12 13:44:56;;;;;;;5.78;4.97;;;27.60;94.40;;;;;;5000453;28;20214;-73
2022/08/12 13:47:23;;;;;;;5.28;4.70;;;27.60;94.70;;;;;;5003225;28;20659;-71
2022/08/12 13:49:51;;;;;;;7.10;4.78;;;27.50;94.60;;;;;;5010498;28;20196;-72
2022/08/12 13:52:18;;;;;;;5.85;4.68;;;27.30;94.80;;;;;;5011847;28;20211;-71
2022/08/12 13:54:47;;;;;;;5.20;4.70;;;27.20;95.10;;;;;;5011512;28;20211;-71
2022/08/12 13:57:16;;;;;;;5.38;4.88;;;27.20;95.30;;;;;;5010897;28;20289;-72
2022/08/12 13:59:45;;;;;;;6.30;5.22;;;27.20;95.40;;;;;;5011399;28;20672;-75
2022/08/12 14:02:13;;;;;;;5.55;4.95;;;27.20;95.50;;;;;;5000415;28;20625;-74
2022/08/12 14:04:41;;;;;;;7.50;5.97;;;27.20;95.60;;;;;;5012065;28;20568;-77
2022/08/12 14:07:08;;;;;;;6.07;5.20;;;27.30;95.70;;;;;;5009697;28;20233;-75
2022/08/12 14:10:35;;;;;;;5.65;4.95;;;27.40;95.70;;;;;;5011468;28;20589;-75
2022/08/12 14:12:22;;;;;;;6.47;5.03;;;27.40;95.70;;;;;;5006819;28;20779;-76
2022/08/12 14:14:50;;;;;;;6.03;5.22;;;27.50;95.70;;;;;;5012885;28;20338;-75
2022/08/12 14:17:18;;;;;;;7.30;5.82;;;27.60;95.50;;;;;;5011439;28;20419;-76
2022/08/12 14:22:27;;;;;;;9.32;7.28;;;27.70;95.50;;;;;;5012530;28;20262;-75
2022/08/12 14:24:54;;;;;;;5.80;5.13;;;27.70;95.50;;;;;;5011804;28;20215;-75
2022/08/12 14:27:22;;;;;;;5.57;5.07;;;27.80;95.50;;;;;;5009480;28;20211;-76
2022/08/12 14:29:52;;;;;;;5.75;5.15;;;27.80;95.60;;;;;;5007196;28;20683;-75
2022/08/12 14:32:19;;;;;;;6.82;5.15;;;27.90;95.50;;;;;;5011155;28;20204;-75
2022/08/12 14:34:47;;;;;;;7.00;4.88;;;28.10;95.40;;;;;;5011229;28;20214;-76
2022/08/12 14:37:14;;;;;;;7.28;5.88;;;28.10;95.30;;;;;;5008994;28;20652;-75
2022/08/12 14:39:41;;;;;;;5.57;5.07;;;28.20;95.20;;;;;;5010390;28;20202;-75
2022/08/12 14:42:08;;;;;;;6.20;5.65;;;28.20;95.00;;;;;;5011137;28;20218;-75
2022/08/12 14:44:35;;;;;;;6.75;5.72;;;28.20;95.00;;;;;;5011660;28;20269;-76